Time;durP1;ratioP1;P1;durP2;ratioP2;P2;SDS_P1;SDS_P2;PMS_P1;PMS_P2;Temp;Humidity;BMP_temperature;BMP_pressure;BME280_temperature;BME280_humidity;BME280_pressure;Samples;Min_cycle;Max_cycle;Signal;HPM_P1;HPM_P2
2023/05/27 00:01:27;;;;;;;13.55;3.97;;;9.30;99.90;;;;;;5057256;28;20052;-59
2023/05/27 00:03:53;;;;;;;16.85;3.95;;;9.30;99.90;;;;;;5058529;28;20082;-60
2023/05/27 00:06:19;;;;;;;11.80;3.70;;;9.20;99.90;;;;;;5042955;28;20041;-59
2023/05/27 00:08:45;;;;;;;14.52;4.78;;;9.10;99.90;;;;;;5006677;28;20033;-59
2023/05/27 00:11:10;;;;;;;14.10;5.15;;;9.10;99.90;;;;;;5057707;28;20062;-60
2023/05/27 00:13:36;;;;;;;12.48;4.13;;;9.10;99.90;;;;;;5057720;28;20037;-60
2023/05/27 00:16:02;;;;;;;10.65;3.90;;;9.10;99.90;;;;;;5075370;28;20040;-60
2023/05/27 00:18:27;;;;;;;13.98;4.07;;;9.10;99.90;;;;;;5057921;28;20036;-60
2023/05/27 00:20:54;;;;;;;12.32;4.30;;;9.10;99.90;;;;;;5075787;28;20044;-60
2023/05/27 00:23:20;;;;;;;13.52;4.38;;;9.10;99.90;;;;;;5040800;28;20036;-60
2023/05/27 00:25:47;;;;;;;14.93;3.42;;;9.10;99.90;;;;;;5055346;28;20043;-59
2023/05/27 00:28:12;;;;;;;14.60;3.78;;;9.10;99.90;;;;;;5054027;28;20041;-60
2023/05/27 00:30:38;;;;;;;12.50;3.95;;;9.00;99.90;;;;;;5043918;28;20037;-60
2023/05/27 00:33:04;;;;;;;11.90;3.40;;;9.00;99.90;;;;;;5034441;28;20111;-59
2023/05/27 00:35:29;;;;;;;18.33;4.40;;;9.00;99.90;;;;;;5034527;28;20045;-60
2023/05/27 00:37:55;;;;;;;14.75;4.15;;;9.00;99.90;;;;;;5034268;28;20037;-60
2023/05/27 00:40:22;;;;;;;8.70;3.70;;;9.00;99.90;;;;;;5034690;28;20048;-59
2023/05/27 00:42:48;;;;;;;12.82;4.63;;;9.10;99.90;;;;;;5035247;28;20055;-60
2023/05/27 00:45:14;;;;;;;13.25;3.90;;;9.00;99.90;;;;;;5071845;28;20040;-59
2023/05/27 00:47:40;;;;;;;17.65;3.78;;;9.10;99.90;;;;;;5037578;28;20040;-59
2023/05/27 00:50:07;;;;;;;13.60;4.68;;;9.00;99.90;;;;;;5053960;28;20044;-60
2023/05/27 00:52:34;;;;;;;13.80;4.03;;;9.00;99.90;;;;;;5053607;28;20055;-60
2023/05/27 00:55:00;;;;;;;13.95;3.78;;;9.00;99.90;;;;;;5054186;28;20520;-60
2023/05/27 00:57:26;;;;;;;11.98;4.03;;;9.00;99.90;;;;;;5048635;28;20102;-60
2023/05/27 00:59:52;;;;;;;12.45;3.85;;;9.00;99.90;;;;;;5053704;28;20098;-60
2023/05/27 01:02:18;;;;;;;13.05;4.20;;;9.00;99.90;;;;;;5053757;28;20055;-59
2023/05/27 01:04:46;;;;;;;18.60;5.68;;;9.00;99.90;;;;;;5071905;28;20434;-60
2023/05/27 01:07:22;;;;;;;16.38;3.97;;;9.00;99.90;;;;;;5053649;28;20040;-60
2023/05/27 01:09:54;;;;;;;16.15;5.03;;;9.00;99.90;;;;;;5053598;28;20127;-60
2023/05/27 01:12:28;;;;;;;17.10;5.07;;;9.00;99.90;;;;;;5053390;28;20044;-60
2023/05/27 01:14:57;;;;;;;15.70;4.80;;;9.00;99.90;;;;;;5053692;28;20492;-60
2023/05/27 01:17:26;;;;;;;17.90;4.43;;;8.90;99.90;;;;;;5067210;28;20537;-60
2023/05/27 01:19:53;;;;;;;11.15;3.72;;;8.90;99.90;;;;;;5053276;28;20072;-60
2023/05/27 01:22:20;;;;;;;12.85;3.80;;;8.90;99.90;;;;;;5071364;28;20072;-60
2023/05/27 01:24:46;;;;;;;13.00;4.13;;;8.80;99.90;;;;;;5053637;28;20036;-60
2023/05/27 01:27:12;;;;;;;11.80;3.88;;;8.80;99.90;;;;;;5053243;28;20093;-60
2023/05/27 01:29:40;;;;;;;13.27;3.92;;;8.80;99.90;;;;;;5053315;28;20566;-60
2023/05/27 01:32:09;;;;;;;13.68;4.90;;;8.80;99.90;;;;;;5071052;28;20068;-59
2023/05/27 01:34:58;;;;;;;12.85;3.55;;;8.80;99.90;;;;;;5053176;28;20090;-60
2023/05/27 01:37:27;;;;;;;13.40;3.83;;;8.80;99.90;;;;;;5038809;28;20055;-60
2023/05/27 01:39:54;;;;;;;13.85;4.35;;;8.70;99.90;;;;;;5052975;28;20445;-60
2023/05/27 01:42:20;;;;;;;13.85;4.07;;;8.70;99.90;;;;;;5053090;28;20048;-59
2023/05/27 01:44:47;;;;;;;12.35;4.30;;;8.70;99.90;;;;;;5066436;23;20045;-61
2023/05/27 01:47:12;;;;;;;14.25;3.65;;;8.60;99.90;;;;;;5028287;28;20037;-60
2023/05/27 01:49:38;;;;;;;12.70;4.53;;;8.60;99.90;;;;;;5022273;28;20046;-60
2023/05/27 01:52:04;;;;;;;10.32;4.10;;;8.60;99.90;;;;;;5025195;28;20536;-62
2023/05/27 01:54:30;;;;;;;12.73;4.03;;;8.60;99.90;;;;;;5030574;28;20091;-62
2023/05/27 01:56:56;;;;;;;10.55;3.72;;;8.60;99.90;;;;;;5010238;28;20072;-62
2023/05/27 01:59:22;;;;;;;18.20;5.22;;;8.60;99.90;;;;;;5015788;28;20048;-61
2023/05/27 02:01:48;;;;;;;15.65;4.53;;;8.50;99.90;;;;;;5024883;28;20052;-61
2023/05/27 02:04:13;;;;;;;14.35;4.88;;;8.50;99.90;;;;;;5054443;28;20308;-60
2023/05/27 02:06:40;;;;;;;15.10;4.28;;;8.50;99.90;;;;;;5033598;28;20030;-60
2023/05/27 02:09:06;;;;;;;12.18;4.30;;;8.40;99.90;;;;;;5053634;28;20041;-62
2023/05/27 02:11:32;;;;;;;20.80;4.72;;;8.50;99.90;;;;;;5044530;28;20107;-63
2023/05/27 02:13:59;;;;;;;15.52;4.88;;;8.40;99.90;;;;;;5041375;28;20057;-62
2023/05/27 02:16:25;;;;;;;12.70;3.97;;;8.40;99.90;;;;;;5051847;28;20396;-62
2023/05/27 02:18:51;;;;;;;12.63;4.47;;;8.50;99.90;;;;;;5039830;28;20055;-62
2023/05/27 02:21:17;;;;;;;11.73;4.03;;;8.50;99.90;;;;;;5030476;28;20454;-61
2023/05/27 02:23:42;;;;;;;12.48;4.93;;;8.50;99.90;;;;;;5033710;28;20045;-62
2023/05/27 02:26:08;;;;;;;12.02;3.97;;;8.50;99.90;;;;;;5047954;28;20041;-62
2023/05/27 02:28:34;;;;;;;12.68;3.90;;;8.50;99.90;;;;;;5010880;28;20040;-61
2023/05/27 02:31:00;;;;;;;14.25;4.95;;;8.50;99.90;;;;;;5048923;28;20471;-62
2023/05/27 02:33:25;;;;;;;12.55;4.32;;;8.50;99.90;;;;;;5027718;28;20127;-61
2023/05/27 02:35:51;;;;;;;13.38;4.05;;;8.50;99.90;;;;;;5012809;28;20117;-62
2023/05/27 02:38:17;;;;;;;14.98;3.45;;;8.50;99.90;;;;;;5019991;28;20215;-62
2023/05/27 02:40:42;;;;;;;14.48;3.88;;;8.50;99.90;;;;;;5041018;28;20036;-62
2023/05/27 02:43:08;;;;;;;13.73;4.72;;;8.50;99.90;;;;;;5029057;28;20139;-61
2023/05/27 02:45:34;;;;;;;13.63;4.28;;;8.50;99.90;;;;;;5039555;28;20094;-61
2023/05/27 02:48:02;;;;;;;11.90;4.15;;;8.50;99.90;;;;;;5036807;28;20293;-61
2023/05/27 02:50:28;;;;;;;18.20;4.75;;;8.50;99.90;;;;;;5036899;28;20046;-61
2023/05/27 02:52:55;;;;;;;13.45;4.47;;;8.50;99.90;;;;;;5036123;28;20123;-62
2023/05/27 02:55:20;;;;;;;15.25;4.10;;;8.50;99.90;;;;;;5031962;28;20041;-61
2023/05/27 02:57:46;;;;;;;14.50;3.85;;;8.50;99.90;;;;;;5032013;28;21253;-62
2023/05/27 03:00:13;;;;;;;12.23;4.18;;;8.50;99.90;;;;;;5020291;28;20135;-63
2023/05/27 03:02:39;;;;;;;14.77;4.20;;;8.50;99.90;;;;;;5050302;28;20044;-61
2023/05/27 03:05:05;;;;;;;16.35;4.72;;;8.50;99.90;;;;;;5039046;28;20427;-61
2023/05/27 03:07:31;;;;;;;14.27;4.55;;;8.50;99.90;;;;;;5032253;28;20055;-61
2023/05/27 03:09:57;;;;;;;14.00;4.03;;;8.50;99.90;;;;;;5031144;28;20041;-62
2023/05/27 03:12:23;;;;;;;16.30;4.30;;;8.50;99.90;;;;;;5028890;28;20066;-62
2023/05/27 03:14:50;;;;;;;11.50;3.60;;;8.50;99.90;;;;;;5042270;28;20067;-62
2023/05/27 03:17:16;;;;;;;14.68;4.18;;;8.40;99.90;;;;;;5046006;28;20041;-62
2023/05/27 03:19:43;;;;;;;12.38;3.88;;;8.50;99.90;;;;;;5045834;28;20048;-61
2023/05/27 03:22:09;;;;;;;21.42;4.43;;;8.40;99.90;;;;;;5045549;28;20049;-61
2023/05/27 03:24:35;;;;;;;15.60;4.35;;;8.40;99.90;;;;;;5048982;28;20058;-62
2023/05/27 03:27:01;;;;;;;13.93;3.78;;;8.40;99.90;;;;;;5047182;28;20068;-61
2023/05/27 03:29:27;;;;;;;21.85;4.82;;;8.50;99.90;;;;;;5051183;28;20044;-62
2023/05/27 03:31:53;;;;;;;18.20;4.68;;;8.50;99.90;;;;;;5051197;28;20037;-62
2023/05/27 03:34:18;;;;;;;21.02;4.95;;;8.50;99.90;;;;;;5044484;28;20098;-61
2023/05/27 03:36:45;;;;;;;12.45;3.25;;;8.40;99.90;;;;;;5044770;28;20417;-61
2023/05/27 03:39:12;;;;;;;13.38;3.50;;;8.40;99.90;;;;;;5041966;28;20483;-61
2023/05/27 03:41:37;;;;;;;13.60;4.22;;;8.50;99.90;;;;;;5040774;28;20048;-62
2023/05/27 03:44:04;;;;;;;12.43;3.85;;;8.50;99.90;;;;;;5043547;28;20254;-61
2023/05/27 03:46:29;;;;;;;10.40;3.53;;;8.50;99.90;;;;;;5027275;28;20112;-62
2023/05/27 03:48:55;;;;;;;11.80;4.28;;;8.50;99.90;;;;;;5024714;28;20115;-63
2023/05/27 03:51:21;;;;;;;13.85;5.35;;;8.50;99.90;;;;;;5029901;28;20052;-62
2023/05/27 03:53:47;;;;;;;15.68;4.07;;;8.40;99.90;;;;;;5041888;28;20041;-62
2023/05/27 03:56:13;;;;;;;10.63;3.63;;;8.40;99.90;;;;;;5049048;28;20040;-62
2023/05/27 03:58:39;;;;;;;13.38;4.32;;;8.40;99.90;;;;;;5011499;28;20510;-62
2023/05/27 04:01:05;;;;;;;12.38;4.78;;;8.40;99.90;;;;;;5032701;28;20037;-62
2023/05/27 04:03:31;;;;;;;11.70;4.10;;;8.40;99.90;;;;;;5033423;28;20037;-62
2023/05/27 04:05:58;;;;;;;17.52;4.80;;;8.40;99.90;;;;;;5044632;28;20045;-62
2023/05/27 04:08:26;;;;;;;13.52;4.35;;;8.40;99.90;;;;;;5023565;28;20037;-61
2023/05/27 04:10:53;;;;;;;20.33;5.43;;;8.50;99.90;;;;;;5042272;28;20046;-62
2023/05/27 04:13:19;;;;;;;17.77;5.30;;;8.50;99.90;;;;;;5029505;28;20044;-60
2023/05/27 04:15:44;;;;;;;17.08;4.93;;;8.50;99.90;;;;;;5028431;28;20160;-61
2023/05/27 04:18:10;;;;;;;15.68;6.75;;;8.60;99.90;;;;;;5051913;28;20123;-62
2023/05/27 04:20:41;;;;;;;30.85;11.10;;;8.60;99.90;;;;;;5051648;28;20046;-62
2023/05/27 04:23:08;;;;;;;23.38;6.00;;;8.70;99.90;;;;;;5050264;28;20037;-61
2023/05/27 04:25:34;;;;;;;20.65;4.95;;;8.80;99.90;;;;;;5027439;28;20143;-61
2023/05/27 04:28:06;;;;;;;19.75;5.60;;;8.80;99.90;;;;;;5029947;28;20128;-62
2023/05/27 04:30:32;;;;;;;15.68;7.38;;;8.80;99.90;;;;;;5052094;28;20370;-62
2023/05/27 04:33:00;;;;;;;16.15;5.85;;;8.80;99.90;;;;;;5035998;28;20037;-62
2023/05/27 04:35:26;;;;;;;16.90;6.40;;;8.80;99.90;;;;;;5049105;28;20040;-62
2023/05/27 04:37:52;;;;;;;15.85;6.47;;;8.80;99.90;;;;;;5055173;28;20036;-61
2023/05/27 04:40:19;;;;;;;15.05;6.35;;;8.80;99.90;;;;;;5053890;28;20573;-62
2023/05/27 04:42:45;;;;;;;13.07;6.10;;;8.90;99.90;;;;;;5031311;28;20098;-62
2023/05/27 04:45:14;;;;;;;18.58;5.72;;;8.90;99.90;;;;;;5046421;28;20349;-63
2023/05/27 04:47:40;;;;;;;17.13;5.50;;;8.90;99.90;;;;;;5052754;28;20068;-62
2023/05/27 04:50:10;;;;;;;17.35;5.32;;;8.90;99.90;;;;;;5056216;28;20040;-62
2023/05/27 04:52:40;;;;;;;23.60;5.43;;;9.00;99.90;;;;;;5052341;28;20142;-62
2023/05/27 04:55:08;;;;;;;21.58;6.47;;;9.00;99.90;;;;;;5054227;28;20115;-62
2023/05/27 04:57:34;;;;;;;20.08;7.20;;;9.10;99.90;;;;;;5052691;28;20331;-62
2023/05/27 05:02:35;;;;;;;16.20;5.53;;;9.10;99.90;;;;;;5050465;28;20098;-62
2023/05/27 05:05:06;;;;;;;17.73;6.57;;;9.20;99.90;;;;;;5054540;28;20091;-62
2023/05/27 05:07:33;;;;;;;20.45;6.07;;;9.20;99.90;;;;;;5056081;28;20047;-61
2023/05/27 05:09:59;;;;;;;28.83;7.32;;;9.20;99.90;;;;;;5057514;28;20498;-62
2023/05/27 05:12:25;;;;;;;17.17;6.45;;;9.30;99.90;;;;;;5049199;28;20113;-62
2023/05/27 05:14:51;;;;;;;18.98;6.68;;;9.30;99.90;;;;;;5031489;28;20048;-62
2023/05/27 05:17:18;;;;;;;16.63;5.65;;;9.40;99.90;;;;;;5050874;28;20530;-62
2023/05/27 05:19:44;;;;;;;21.95;6.95;;;9.50;99.90;;;;;;5048354;28;20044;-61
2023/05/27 05:22:12;;;;;;;18.60;6.28;;;9.50;99.90;;;;;;5038009;28;20036;-61
2023/05/27 05:24:38;;;;;;;15.40;5.57;;;9.50;99.90;;;;;;5071750;28;20057;-62
2023/05/27 05:27:06;;;;;;;15.68;4.93;;;9.60;99.90;;;;;;5050355;28;20059;-62
2023/05/27 05:29:32;;;;;;;14.85;5.18;;;9.60;99.90;;;;;;5044423;28;20559;-63
2023/05/27 05:31:58;;;;;;;19.08;6.57;;;9.60;99.90;;;;;;5069381;28;20044;-62
2023/05/27 05:34:24;;;;;;;21.20;5.95;;;9.70;99.90;;;;;;5049154;28;20572;-62
2023/05/27 05:36:49;;;;;;;19.08;5.72;;;9.80;99.90;;;;;;5048547;28;20475;-62
2023/05/27 05:39:16;;;;;;;19.98;5.00;;;9.80;99.90;;;;;;5053943;28;20118;-61
2023/05/27 05:41:42;;;;;;;24.83;6.88;;;9.90;99.90;;;;;;5069665;28;20503;-65
2023/05/27 05:44:07;;;;;;;17.25;6.05;;;10.00;99.90;;;;;;5052149;28;20098;-61
2023/05/27 05:46:33;;;;;;;17.65;6.07;;;10.10;99.90;;;;;;5069873;28;20041;-62
2023/05/27 05:48:59;;;;;;;17.17;6.70;;;10.20;99.90;;;;;;5049309;28;20045;-62
2023/05/27 05:51:25;;;;;;;19.20;5.72;;;10.30;99.90;;;;;;5047014;28;20083;-61
2023/05/27 05:53:51;;;;;;;14.48;5.43;;;10.30;99.90;;;;;;5049362;28;20051;-62
2023/05/27 05:56:17;;;;;;;23.80;7.78;;;10.40;99.90;;;;;;5069490;28;20041;-63
2023/05/27 05:58:42;;;;;;;17.05;6.15;;;10.50;99.90;;;;;;5066178;28;20033;-63
2023/05/27 06:01:08;;;;;;;19.00;6.30;;;10.60;99.90;;;;;;5048910;28;20086;-60
2023/05/27 06:03:34;;;;;;;20.35;5.20;;;10.70;99.90;;;;;;5053653;28;20488;-63
2023/05/27 06:05:59;;;;;;;16.45;4.35;;;10.80;99.90;;;;;;5056026;28;20508;-61
2023/05/27 06:08:25;;;;;;;18.98;5.30;;;10.90;99.90;;;;;;5048332;28;20043;-63
2023/05/27 06:10:51;;;;;;;17.65;5.40;;;11.00;99.90;;;;;;5067015;28;20055;-63
2023/05/27 06:13:17;;;;;;;17.10;5.22;;;11.10;99.90;;;;;;5069193;28;20029;-63
2023/05/27 06:15:43;;;;;;;20.70;5.38;;;11.20;99.90;;;;;;5041120;28;20343;-61
2023/05/27 06:18:09;;;;;;;16.58;4.30;;;11.30;99.90;;;;;;5042029;28;20032;-62
2023/05/27 06:20:35;;;;;;;17.98;5.13;;;11.40;99.90;;;;;;5044606;28;20193;-62
2023/05/27 06:23:00;;;;;;;17.40;4.75;;;11.50;99.90;;;;;;5057073;28;20044;-61
2023/05/27 06:25:26;;;;;;;18.20;5.15;;;11.50;99.90;;;;;;5037535;28;20407;-64
2023/05/27 06:27:52;;;;;;;16.52;5.38;;;11.50;99.90;;;;;;5042810;28;20037;-63
2023/05/27 06:30:18;;;;;;;17.77;4.05;;;11.60;99.90;;;;;;5070448;28;20047;-60
2023/05/27 06:32:43;;;;;;;14.82;4.18;;;11.50;99.90;;;;;;5029785;28;20579;-61
2023/05/27 06:35:09;;;;;;;17.30;4.50;;;11.60;99.90;;;;;;5065933;28;20073;-62
2023/05/27 06:37:35;;;;;;;16.73;4.30;;;11.70;99.90;;;;;;5069036;28;20101;-62
2023/05/27 06:40:01;;;;;;;13.57;3.80;;;11.70;99.90;;;;;;5059455;28;20351;-62
2023/05/27 06:42:26;;;;;;;16.90;4.43;;;11.80;99.90;;;;;;5058968;28;20044;-63
2023/05/27 06:44:52;;;;;;;13.15;4.20;;;12.00;99.90;;;;;;5045978;28;20143;-63
2023/05/27 06:47:18;;;;;;;20.13;4.65;;;12.00;99.90;;;;;;5076833;28;20418;-62
2023/05/27 06:49:44;;;;;;;14.98;4.50;;;11.90;99.90;;;;;;5064916;28;20514;-62
2023/05/27 06:52:10;;;;;;;15.77;4.15;;;11.90;99.90;;;;;;5051461;28;20456;-63
2023/05/27 06:54:36;;;;;;;17.52;4.60;;;12.00;99.90;;;;;;5054432;28;20068;-62
2023/05/27 06:57:02;;;;;;;19.80;5.40;;;12.10;99.90;;;;;;5056430;28;20043;-63
2023/05/27 06:59:28;;;;;;;19.30;4.95;;;12.10;99.90;;;;;;5045392;28;20044;-67
2023/05/27 07:01:56;;;;;;;13.70;4.97;;;12.10;99.90;;;;;;5038156;28;20106;-63
2023/05/27 07:04:22;;;;;;;14.45;4.88;;;12.10;99.90;;;;;;5067490;28;20380;-61
2023/05/27 07:06:47;;;;;;;18.02;4.32;;;12.10;99.90;;;;;;5051311;28;20113;-62
2023/05/27 07:09:13;;;;;;;16.95;4.82;;;12.20;99.90;;;;;;5050120;28;20041;-62
2023/05/27 07:11:40;;;;;;;20.30;4.97;;;12.30;99.90;;;;;;5064131;28;20116;-64
2023/05/27 07:14:06;;;;;;;18.13;5.45;;;12.40;99.90;;;;;;5062277;28;20044;-64
2023/05/27 07:16:32;;;;;;;14.07;5.15;;;12.50;99.90;;;;;;5029061;28;20090;-62
2023/05/27 07:18:57;;;;;;;15.30;4.00;;;12.60;99.90;;;;;;5064836;28;20040;-62
2023/05/27 07:21:23;;;;;;;18.13;5.60;;;12.80;99.90;;;;;;5051176;28;20047;-61
2023/05/27 07:23:49;;;;;;;15.70;4.95;;;12.90;99.90;;;;;;5050785;28;20462;-62
2023/05/27 07:26:14;;;;;;;14.85;4.20;;;13.00;99.90;;;;;;5055110;28;20045;-62
2023/05/27 07:28:40;;;;;;;17.60;5.13;;;12.90;99.90;;;;;;5062961;28;20307;-64
2023/05/27 07:31:06;;;;;;;18.17;4.47;;;12.80;99.90;;;;;;5068315;28;20035;-61
2023/05/27 07:33:32;;;;;;;24.33;6.38;;;12.90;99.90;;;;;;5062974;28;20040;-62
2023/05/27 07:35:57;;;;;;;21.58;8.75;;;13.00;99.90;;;;;;5012433;28;20059;-61
2023/05/27 07:38:23;;;;;;;21.83;5.35;;;13.00;99.90;;;;;;5050312;28;20047;-61
2023/05/27 07:40:49;;;;;;;18.92;6.55;;;13.10;99.90;;;;;;5051895;28;20190;-61
2023/05/27 07:43:15;;;;;;;20.33;5.38;;;13.20;99.90;;;;;;5064373;28;20036;-63
2023/05/27 07:45:41;;;;;;;19.67;4.88;;;13.20;99.90;;;;;;5071704;28;20059;-61
2023/05/27 07:48:06;;;;;;;14.98;5.10;;;13.40;99.90;;;;;;5066670;28;20040;-63
2023/05/27 07:50:32;;;;;;;15.63;4.85;;;13.50;99.90;;;;;;5049822;28;20405;-60
2023/05/27 08:01:05;;;;;;;16.05;5.78;;;13.70;99.90;;;;;;5072281;28;20135;-62
2023/05/27 08:03:31;;;;;;;16.90;4.72;;;13.80;99.90;;;;;;5063590;22;20048;-60
2023/05/27 08:05:57;;;;;;;19.13;5.97;;;14.10;99.90;;;;;;5023237;28;20036;-60
2023/05/27 08:08:22;;;;;;;17.10;5.13;;;14.20;99.90;;;;;;5062038;28;20143;-60
2023/05/27 08:10:48;;;;;;;19.42;5.45;;;14.30;99.90;;;;;;5036453;28;20056;-60
2023/05/27 08:13:14;;;;;;;15.50;4.97;;;14.30;99.90;;;;;;5047898;28;20040;-60
2023/05/27 08:15:39;;;;;;;17.08;5.30;;;14.30;99.90;;;;;;5064815;23;20045;-58
2023/05/27 08:18:05;;;;;;;25.60;5.70;;;14.40;99.90;;;;;;5030579;28;20403;-59
2023/05/27 08:20:31;;;;;;;12.88;4.75;;;14.50;99.90;;;;;;5030302;28;20048;-58
2023/05/27 08:22:56;;;;;;;17.33;5.50;;;14.60;99.90;;;;;;5031050;28;20033;-60
2023/05/27 08:25:22;;;;;;;21.83;6.15;;;14.50;99.90;;;;;;5018514;28;20048;-59
2023/05/27 08:28:01;;;;;;;19.90;5.13;;;14.60;99.90;;;;;;5027808;28;20029;-58
2023/05/27 08:30:28;;;;;;;20.17;6.03;;;14.70;99.90;;;;;;5030709;28;20257;-58
2023/05/27 08:32:54;;;;;;;13.43;5.22;;;14.70;99.90;;;;;;5026835;28;20048;-58
2023/05/27 08:35:20;;;;;;;20.08;5.57;;;14.90;99.90;;;;;;5028719;28;20093;-60
2023/05/27 08:37:46;;;;;;;21.27;6.07;;;14.90;99.90;;;;;;5024179;28;20564;-59
2023/05/27 08:40:14;;;;;;;16.80;5.80;;;15.00;99.90;;;;;;5025217;28;20049;-57
2023/05/27 08:42:41;;;;;;;21.98;5.90;;;15.10;99.90;;;;;;5020654;28;20712;-57
2023/05/27 08:45:08;;;;;;;17.13;5.68;;;15.00;99.90;;;;;;5022147;28;20045;-57
2023/05/27 08:47:34;;;;;;;19.90;4.75;;;15.10;99.90;;;;;;5024615;28;20037;-58
2023/05/27 08:50:00;;;;;;;15.25;4.72;;;15.20;99.90;;;;;;5003903;28;20041;-60
2023/05/27 08:52:28;;;;;;;19.73;5.60;;;15.30;99.90;;;;;;5027569;28;20534;-59
2023/05/27 08:54:58;;;;;;;17.83;5.10;;;15.30;99.90;;;;;;5028141;28;20132;-59
2023/05/27 08:57:35;;;;;;;17.75;4.90;;;15.40;99.90;;;;;;5031058;28;20037;-58
2023/05/27 09:00:01;;;;;;;20.83;6.65;;;15.50;99.90;;;;;;5013066;28;20045;-55
2023/05/27 09:02:28;;;;;;;25.63;6.40;;;15.60;99.90;;;;;;5003610;28;21982;-61
2023/05/27 09:04:53;;;;;;;14.80;5.53;;;15.50;99.90;;;;;;5039143;28;20499;-58
2023/05/27 09:07:23;;;;;;;19.20;5.75;;;15.40;99.90;;;;;;5011073;28;20050;-57
2023/05/27 09:09:58;;;;;;;17.63;5.20;;;15.40;99.90;;;;;;5038675;28;20400;-58
2023/05/27 09:12:26;;;;;;;14.35;4.88;;;15.70;99.90;;;;;;5017972;28;20126;-59
2023/05/27 09:14:55;;;;;;;17.88;5.95;;;15.70;99.90;;;;;;5003094;28;20045;-59
2023/05/27 09:17:23;;;;;;;15.27;5.22;;;15.80;99.90;;;;;;5062552;28;20120;-56
2023/05/27 09:19:54;;;;;;;14.90;5.30;;;15.90;99.90;;;;;;5062181;28;20090;-57
2023/05/27 09:22:25;;;;;;;20.90;5.75;;;16.10;99.90;;;;;;5052848;28;20075;-57
2023/05/27 09:24:54;;;;;;;15.70;5.40;;;16.20;99.90;;;;;;5052991;28;20392;-60
2023/05/27 09:27:31;;;;;;;15.20;5.70;;;16.30;99.90;;;;;;5043836;28;20056;-60
2023/05/27 09:30:06;;;;;;;16.65;5.40;;;16.30;99.90;;;;;;5051809;28;20049;-57
2023/05/27 09:32:33;;;;;;;19.58;5.60;;;16.40;99.90;;;;;;5046926;28;20088;-56
2023/05/27 09:35:04;;;;;;;15.38;5.40;;;16.50;99.90;;;;;;5035191;28;20032;-58
2023/05/27 09:37:34;;;;;;;16.75;5.30;;;16.60;99.90;;;;;;5065204;28;20642;-60
2023/05/27 09:40:15;;;;;;;15.10;5.35;;;16.70;99.90;;;;;;5046039;28;20487;-59
2023/05/27 09:42:45;;;;;;;13.27;5.25;;;16.90;99.90;;;;;;5052634;28;20040;-58
2023/05/27 09:45:20;;;;;;;20.80;5.38;;;17.10;99.90;;;;;;5033260;28;20106;-61
2023/05/27 09:47:53;;;;;;;14.38;5.50;;;17.20;99.90;;;;;;5033393;28;20589;-58
2023/05/27 09:50:20;;;;;;;17.27;5.47;;;17.20;99.90;;;;;;5033133;28;20106;-59
2023/05/27 09:52:47;;;;;;;18.85;6.00;;;17.30;99.90;;;;;;5016590;28;20045;-59
2023/05/27 09:55:15;;;;;;;20.58;6.35;;;17.20;99.90;;;;;;5033000;28;20052;-59
2023/05/27 09:57:41;;;;;;;16.38;6.20;;;17.10;99.90;;;;;;5051007;28;20051;-61
2023/05/27 10:00:11;;;;;;;15.27;5.55;;;17.30;99.90;;;;;;5033328;28;20701;-59
2023/05/27 10:02:41;;;;;;;18.38;7.03;;;17.30;99.90;;;;;;5016763;28;20051;-58
2023/05/27 10:05:08;;;;;;;17.05;5.68;;;17.40;99.90;;;;;;5050959;28;20071;-59
2023/05/27 10:07:39;;;;;;;18.35;5.95;;;17.40;99.90;;;;;;5032846;28;20048;-58
2023/05/27 10:10:14;;;;;;;19.52;5.70;;;17.50;99.90;;;;;;5032706;28;20145;-60
2023/05/27 10:12:45;;;;;;;16.98;5.43;;;17.50;99.90;;;;;;5033270;28;20504;-59
2023/05/27 10:15:39;;;;;;;13.43;6.40;;;17.40;99.90;;;;;;5033000;28;20115;-59
2023/05/27 10:18:06;;;;;;;18.42;6.00;;;17.70;99.90;;;;;;5032890;28;20079;-61
2023/05/27 10:20:39;;;;;;;19.85;7.55;;;17.70;99.90;;;;;;5022048;28;20120;-58
2023/05/27 10:23:21;;;;;;;14.17;5.17;;;17.70;99.90;;;;;;5070737;28;20593;-58
2023/05/27 10:25:50;;;;;;;15.23;5.25;;;17.90;99.90;;;;;;5052403;28;20286;-61
2023/05/27 10:28:37;;;;;;;17.77;5.93;;;17.90;99.90;;;;;;5052676;28;20055;-60
2023/05/27 10:31:15;;;;;;;18.50;6.28;;;17.90;99.90;;;;;;5068928;28;20124;-58
2023/05/27 10:33:52;;;;;;;16.92;6.22;;;18.00;99.90;;;;;;5052108;28;20040;-60
2023/05/27 10:36:28;;;;;;;17.40;6.30;;;18.30;99.90;;;;;;5070050;28;20037;-59
2023/05/27 10:39:00;;;;;;;18.45;6.10;;;18.60;99.90;;;;;;5070768;28;20052;-59
2023/05/27 10:41:27;;;;;;;16.92;5.93;;;18.50;98.80;;;;;;5046866;28;20127;-59
2023/05/27 10:43:59;;;;;;;15.07;5.72;;;18.50;99.40;;;;;;5032487;28;20045;-61
2023/05/27 10:46:26;;;;;;;16.38;6.20;;;18.80;99.70;;;;;;5032112;28;20037;-59
2023/05/27 10:48:52;;;;;;;17.05;5.93;;;18.90;99.40;;;;;;5032150;28;20087;-58
2023/05/27 10:51:17;;;;;;;18.58;6.43;;;19.00;98.90;;;;;;5032118;28;20039;-58
2023/05/27 10:53:43;;;;;;;13.90;5.72;;;18.90;99.30;;;;;;5044302;28;20048;-59
2023/05/27 10:56:09;;;;;;;13.93;6.32;;;19.10;99.20;;;;;;5052045;28;20036;-61
2023/05/27 10:58:37;;;;;;;19.00;6.13;;;19.30;98.80;;;;;;5052216;28;20036;-61
2023/05/27 11:01:14;;;;;;;24.08;6.95;;;19.30;98.80;;;;;;5052019;28;20359;-59
2023/05/27 11:03:49;;;;;;;15.95;6.30;;;19.50;98.90;;;;;;5070116;28;20045;-59
2023/05/27 11:06:16;;;;;;;15.82;6.07;;;19.60;98.80;;;;;;5070104;28;20116;-61
2023/05/27 11:08:43;;;;;;;16.13;6.65;;;19.50;98.30;;;;;;5051882;28;20056;-61
2023/05/27 11:11:10;;;;;;;21.42;7.05;;;19.60;98.40;;;;;;5050857;28;20119;-59
2023/05/27 11:13:44;;;;;;;14.85;6.82;;;19.60;97.50;;;;;;5051764;28;20169;-59
2023/05/27 11:16:11;;;;;;;13.95;6.43;;;19.80;98.30;;;;;;5051279;28;20043;-59
2023/05/27 11:18:42;;;;;;;14.52;6.47;;;19.70;97.50;;;;;;5051787;28;20071;-62
2023/05/27 11:21:09;;;;;;;20.17;6.35;;;19.80;97.70;;;;;;5051781;28;20444;-61
2023/05/27 11:23:40;;;;;;;16.50;6.93;;;19.90;97.70;;;;;;5069933;28;20123;-58
2023/05/27 11:26:18;;;;;;;15.65;7.03;;;20.10;97.50;;;;;;5068151;28;20036;-59
2023/05/27 11:29:03;;;;;;;18.58;6.78;;;20.20;97.40;;;;;;5051356;28;20037;-58
2023/05/27 11:31:30;;;;;;;15.48;6.95;;;20.10;96.80;;;;;;5069482;28;20082;-58
2023/05/27 11:33:57;;;;;;;19.27;6.95;;;20.30;97.70;;;;;;5069212;28;20033;-58
2023/05/27 11:36:26;;;;;;;17.52;6.85;;;20.30;96.80;;;;;;5051182;28;20033;-59
2023/05/27 11:38:56;;;;;;;16.15;7.15;;;20.30;96.60;;;;;;5051601;28;20123;-57
2023/05/27 11:41:26;;;;;;;15.57;6.97;;;20.50;96.70;;;;;;5069281;28;20097;-60
2023/05/27 11:43:56;;;;;;;15.95;6.95;;;20.40;96.50;;;;;;5045715;28;20041;-59
2023/05/27 11:46:23;;;;;;;14.63;7.18;;;20.60;96.60;;;;;;5049294;28;20067;-59
2023/05/27 11:48:49;;;;;;;13.55;6.72;;;20.50;96.30;;;;;;5048257;28;20068;-59
2023/05/27 11:51:15;;;;;;;17.42;7.10;;;20.60;96.50;;;;;;5031414;28;20032;-59
2023/05/27 11:53:45;;;;;;;18.17;7.28;;;20.80;96.30;;;;;;5049133;28;20446;-61
2023/05/27 11:56:11;;;;;;;15.20;7.68;;;20.70;96.00;;;;;;5049367;28;20138;-59
2023/05/27 11:58:36;;;;;;;16.30;7.20;;;20.60;96.10;;;;;;5031312;28;20084;-59
2023/05/27 12:01:05;;;;;;;16.17;7.10;;;20.70;96.70;;;;;;5049236;28;20458;-58
2023/05/27 12:03:33;;;;;;;13.80;6.13;;;20.80;96.10;;;;;;5031596;28;20530;-58
2023/05/27 12:05:59;;;;;;;18.13;7.70;;;20.90;95.20;;;;;;5049156;28;20124;-61
2023/05/27 12:08:25;;;;;;;17.27;6.70;;;21.00;95.80;;;;;;5031584;28;20053;-61
2023/05/27 12:10:53;;;;;;;13.45;6.30;;;21.10;95.80;;;;;;5031282;28;20067;-59
2023/05/27 12:13:23;;;;;;;19.77;7.43;;;21.20;95.10;;;;;;5048869;28;20047;-59
2023/05/27 12:15:49;;;;;;;19.75;7.10;;;21.10;95.10;;;;;;5049025;28;20048;-59
2023/05/27 12:18:15;;;;;;;22.02;7.63;;;21.10;94.90;;;;;;5049270;28;20060;-59
2023/05/27 12:20:41;;;;;;;17.55;7.45;;;21.30;95.10;;;;;;5049245;28;20044;-61
2023/05/27 12:23:07;;;;;;;15.10;6.93;;;21.10;94.20;;;;;;5051143;28;20083;-59
2023/05/27 12:25:33;;;;;;;18.10;6.97;;;21.00;95.20;;;;;;5035003;28;20080;-58
2023/05/27 12:27:58;;;;;;;21.90;7.63;;;21.20;94.80;;;;;;5018318;28;20041;-59
2023/05/27 12:30:24;;;;;;;18.02;6.45;;;21.20;94.90;;;;;;5034788;28;20396;-59
2023/05/27 12:32:50;;;;;;;16.10;6.85;;;21.10;94.20;;;;;;5052313;28;20044;-58
2023/05/27 12:35:15;;;;;;;16.10;7.57;;;21.20;94.80;;;;;;5034774;28;20037;-60
2023/05/27 12:37:41;;;;;;;17.95;7.03;;;21.30;94.50;;;;;;5052425;28;20098;-61
2023/05/27 12:40:14;;;;;;;18.38;7.00;;;21.30;94.30;;;;;;5034628;28;20049;-61
2023/05/27 12:42:40;;;;;;;16.23;6.38;;;21.30;94.50;;;;;;5018084;28;20098;-59
2023/05/27 12:45:07;;;;;;;16.10;7.00;;;21.50;94.60;;;;;;5034354;28;20086;-59
2023/05/27 12:47:32;;;;;;;18.05;6.75;;;21.60;93.40;;;;;;5052312;28;20045;-58
2023/05/27 12:49:59;;;;;;;19.83;7.15;;;21.60;93.60;;;;;;5034403;28;20066;-60
2023/05/27 12:52:25;;;;;;;12.35;6.78;;;21.70;93.50;;;;;;5001618;28;20045;-61